सभी
Mornington Island Airport (Mornington Island, Queensland) ONG मौसम
|
Mornington Island, Queensland (ONG / YMTI)
स्वच्छ आकाश
हल्की हवाएं |
|
27 °C |
ONG Terminal Area Forecast
| Date | Time (AEST) | Flight Rules | Wind Dir. | Speed | Type | Height AGL (ft) | Visibility | Remarks | ||||||
|---|---|---|---|---|---|---|---|---|---|---|---|---|---|---|
Recent ONG METAR history
| Date | Time (AEST) | Flight Rules | Wind Dir. | Speed | Type | Height AGL (ft) | Visibility | Temp (°C) | Temp (°F) | Dew Point (°C) | Dew Point (°F) | Rel. Humid. | Pressure | Density Altitude | Remarks |
|---|---|---|---|---|---|---|---|---|---|---|---|---|---|---|---|
| 04-मई | 19:00 | VFR | 360° | 4 kt | 10000 meters | 27° | 80° | 23° | 73° | 79% | 1012 mb | 1,509 ft | |||
| 04-मई | 18:00 | VFR | 340° | 6 kt | 10000 meters | 29° | 84° | 23° | 73° | 70% | 1011 mb | 1,778 ft | |||
| 04-मई | 17:00 | VFR | 90° | 5 kt | 10000 meters | 32° | 89° | 19° | 66° | 46% | 1011 mb | 2,138 ft | |||
| 04-मई | 16:00 | VFR | 150° | 7 kt | 10000 meters | 32° | 89° | 21° | 69° | 52% | 1011 mb | 2,138 ft | |||
| 04-मई | 15:00 | VFR | 120° | 8 kt | 10000 meters | 32° | 89° | 21° | 69° | 52% | 1011 mb | 2,138 ft | |||
| 04-मई | 14:00 | VFR | 130° | 9 kt | 10000 meters | 32° | 89° | 21° | 69° | 52% | 1011 mb | 2,138 ft | |||
| 04-मई | 13:00 | VFR | 130° | 9 kt | 10000 meters | 31° | 87° | 20° | 68° | 52% | 1012 mb | 1,989 ft | |||
| 04-मई | 12:00 | VFR | 140° | 9 kt | 10000 meters | 30° | 86° | 23° | 73° | 66% | 1013 mb | 1,839 ft | |||
| 04-मई | 11:00 | VFR | 140° | 10 kt | 10000 meters | 30° | 86° | 23° | 73° | 66% | 1013 mb | 1,839 ft | |||
| 04-मई | 10:00 | VFR | 170° | 8 kt | 10000 meters | 29° | 84° | 23° | 73° | 70% | 1013 mb | 1,719 ft | |||
| 04-मई | 09:00 | VFR | 150° | 5 kt | 10000 meters | 28° | 82° | 23° | 73° | 74% | 1013 mb | 1,599 ft | |||
| 04-मई | 08:00 | VFR | 190° | 3 kt | 10000 meters | 27° | 80° | 25° | 77° | 89% | 1012 mb | 1,509 ft | |||
| 04-मई | 07:00 | VFR | 200° | 4 kt | 10000 meters | 25° | 77° | 25° | 77° | 100% | 1012 mb | 1,269 ft | |||
| 04-मई | 06:00 | VFR | 220° | 4 kt | 10000 meters | 26° | 78° | 25° | 77° | 94% | 1011 mb | 1,418 ft | |||
| 04-मई | 05:00 | VFR | 230° | 7 kt | 10000 meters | 26° | 78° | 25° | 77° | 94% | 1011 mb | 1,418 ft | |||
| 04-मई | 04:00 | VFR | 230° | 6 kt | 10000 meters | 26° | 78° | 25° | 77° | 94% | 1011 mb | 1,418 ft | |||
| 04-मई | 03:00 | VFR | 250° | 6 kt | 10000 meters | 26° | 78° | 24° | 75° | 89% | 1011 mb | 1,418 ft | |||
| 04-मई | 02:00 | VFR | 250° | 6 kt | 10000 meters | 25° | 77° | 24° | 75° | 94% | 1012 mb | 1,269 ft | |||
| 04-मई | 01:00 | VFR | Calm | 10000 meters | 24° | 75° | 23° | 73° | 94% | 1012 mb | 1,149 ft | ||||
| 04-मई | 00:00 | VFR | Calm | 10000 meters | 23° | 73° | 22° | 71° | 94% | 1012 mb | 1,029 ft | ||||
| 03-मई | 23:00 | VFR | Calm | 10000 meters | 23° | 73° | 23° | 73° | 100% | 1013 mb | 999 ft | ||||
| 03-मई | 22:00 | VFR | Calm | 10000 meters | 24° | 75° | 23° | 73° | 94% | 1013 mb | 1,119 ft | ||||
| 03-मई | 21:00 | VFR | Calm | 10000 meters | 24° | 75° | 23° | 73° | 94% | 1013 mb | 1,119 ft | ||||
| 03-मई | 20:00 | VFR | Calm | 10000 meters | 25° | 77° | 23° | 73° | 89% | 1012 mb | 1,269 ft |
लॉगिन
| Your browser is unsupported. अपना ब्राऊजर अपग्रेड करें |
